This is the latest recevied weather packets stored in our database for station/object IN3MWE-10. If no packets are shown the sender has not sent any weather packets the latest 10 day(s).
| Time | Temp. | Humidity | Pressure | Rain* | Wind** | Luminosity | Snow |
|---|---|---|---|---|---|---|---|
| 1788406514 | 18.33° C | 75% | 985.4 hPa | - | - | - | - |
| 1788405613 | 18.33° C | 74% | 985.3 hPa | - | - | - | - |
| 1788404713 | 18.33° C | 73% | 985.4 hPa | - | - | - | - |
| 1788403826 | 18.89° C | 66% | 985.2 hPa | - | - | - | - |
| 1788402926 | 19.44° C | 64% | 985.1 hPa | - | - | - | - |
| 1788402026 | 18.89° C | 65% | 985.1 hPa | - | - | - | - |
| 1788401126 | 19.44° C | 69% | 985.1 hPa | - | - | - | - |
| 1788400226 | 19.44° C | 68% | 985 hPa | - | - | - | - |
| 1788399326 | 19.44° C | 70% | 984.9 hPa | - | - | - | - |
| 1788398426 | 19.44° C | 66% | 984.8 hPa | - | - | - | - |
| 1788397525 | 20.56° C | 59% | 984.7 hPa | - | - | - | - |
| 1788396625 | 20.56° C | 61% | 984.7 hPa | - | - | - | - |
| 1788395725 | 20.56° C | 55% | 984.5 hPa | - | - | - | - |
| 1788394825 | 21.11° C | 51% | 984.3 hPa | - | - | - | - |
| 1788393925 | 21.67° C | 49% | 984.3 hPa | - | - | - | - |
| 1788393025 | 21.67° C | 48% | 984.2 hPa | - | - | - | - |
| 1788392125 | 21.11° C | 51% | 984.3 hPa | - | - | - | - |
| 1788391225 | 21.67° C | 50% | 984.2 hPa | - | - | - | - |
| 1788390324 | 22.22° C | 50% | 984.2 hPa | - | - | - | - |
| 1788389424 | 22.22° C | 46% | 984.1 hPa | - | - | - | - |
| 1788388524 | 22.22° C | 46% | 983.9 hPa | - | - | - | - |
| 1788387624 | 22.22° C | 45% | 983.8 hPa | - | - | - | - |
| 1788386724 | 22.78° C | 45% | 983.6 hPa | - | - | - | - |
| 1788385824 | 22.78° C | 45% | 983.5 hPa | - | - | - | - |
| 1788384924 | 22.78° C | 45% | 983.5 hPa | - | - | - | - |
* Rain since midnight (hover to see other rain measurements)
** Current wind speed in m/s (hover to see current wind gust speed)